sensor_id;sensor_type;location;lat;lon;timestamp;P1;durP1;ratioP1;P2;durP2;ratioP2
75785;SDS011;64402;44.708;37.644;2024-03-02T00:00:29;17.15;;;5.95;;
75785;SDS011;64402;44.708;37.644;2024-03-02T00:02:55;10.13;;;4.68;;
75785;SDS011;64402;44.708;37.644;2024-03-02T00:05:22;8.98;;;4.20;;
75785;SDS011;64402;44.708;37.644;2024-03-02T00:07:54;9.63;;;3.60;;
75785;SDS011;64402;44.708;37.644;2024-03-02T00:10:26;8.60;;;3.08;;
75785;SDS011;64402;44.708;37.644;2024-03-02T00:12:57;8.90;;;3.40;;
75785;SDS011;64402;44.708;37.644;2024-03-02T00:17:55;11.27;;;3.92;;
75785;SDS011;64402;44.708;37.644;2024-03-02T00:20:22;11.70;;;3.72;;
75785;SDS011;64402;44.708;37.644;2024-03-02T00:22:54;8.93;;;2.50;;
75785;SDS011;64402;44.708;37.644;2024-03-02T00:25:40;6.53;;;2.60;;
75785;SDS011;64402;44.708;37.644;2024-03-02T00:28:25;7.22;;;2.35;;
75785;SDS011;64402;44.708;37.644;2024-03-02T00:33:41;6.00;;;2.15;;
75785;SDS011;64402;44.708;37.644;2024-03-02T00:38:44;5.97;;;1.90;;
75785;SDS011;64402;44.708;37.644;2024-03-02T00:41:25;6.97;;;2.22;;
75785;SDS011;64402;44.708;37.644;2024-03-02T00:44:04;6.30;;;2.40;;
75785;SDS011;64402;44.708;37.644;2024-03-02T00:46:42;6.57;;;2.00;;
75785;SDS011;64402;44.708;37.644;2024-03-02T00:49:18;6.93;;;2.03;;
75785;SDS011;64402;44.708;37.644;2024-03-02T00:51:48;5.85;;;2.10;;
75785;SDS011;64402;44.708;37.644;2024-03-02T00:54:15;5.28;;;2.00;;
75785;SDS011;64402;44.708;37.644;2024-03-02T00:56:50;6.75;;;2.00;;
75785;SDS011;64402;44.708;37.644;2024-03-02T00:59:16;6.13;;;2.05;;
75785;SDS011;64402;44.708;37.644;2024-03-02T01:01:43;20.95;;;2.90;;
75785;SDS011;64402;44.708;37.644;2024-03-02T01:04:09;9.38;;;2.00;;
75785;SDS011;64402;44.708;37.644;2024-03-02T01:06:37;6.10;;;1.80;;
75785;SDS011;64402;44.708;37.644;2024-03-02T01:09:03;5.85;;;1.90;;
75785;SDS011;64402;44.708;37.644;2024-03-02T01:11:29;6.13;;;2.00;;
75785;SDS011;64402;44.708;37.644;2024-03-02T01:13:56;6.45;;;2.00;;
75785;SDS011;64402;44.708;37.644;2024-03-02T01:16:22;6.25;;;2.05;;
75785;SDS011;64402;44.708;37.644;2024-03-02T01:18:48;5.20;;;1.80;;
75785;SDS011;64402;44.708;37.644;2024-03-02T01:21:14;6.53;;;2.13;;
75785;SDS011;64402;44.708;37.644;2024-03-02T01:23:41;10.98;;;3.85;;
75785;SDS011;64402;44.708;37.644;2024-03-02T01:26:07;11.07;;;3.85;;
75785;SDS011;64402;44.708;37.644;2024-03-02T01:28:33;12.00;;;4.38;;
75785;SDS011;64402;44.708;37.644;2024-03-02T01:30:59;11.38;;;4.50;;
75785;SDS011;64402;44.708;37.644;2024-03-02T01:33:27;11.07;;;4.22;;
75785;SDS011;64402;44.708;37.644;2024-03-02T01:35:53;19.88;;;3.90;;
75785;SDS011;64402;44.708;37.644;2024-03-02T01:38:19;12.85;;;3.60;;
75785;SDS011;64402;44.708;37.644;2024-03-02T01:40:46;8.40;;;3.22;;
75785;SDS011;64402;44.708;37.644;2024-03-02T01:43:12;5.75;;;2.20;;
75785;SDS011;64402;44.708;37.644;2024-03-02T01:45:38;6.95;;;2.20;;
75785;SDS011;64402;44.708;37.644;2024-03-02T01:48:05;7.85;;;2.20;;
75785;SDS011;64402;44.708;37.644;2024-03-02T01:52:59;6.60;;;2.20;;
75785;SDS011;64402;44.708;37.644;2024-03-02T01:55:26;10.88;;;2.17;;
75785;SDS011;64402;44.708;37.644;2024-03-02T01:57:54;13.90;;;1.98;;
75785;SDS011;64402;44.708;37.644;2024-03-02T02:00:21;15.00;;;2.20;;
75785;SDS011;64402;44.708;37.644;2024-03-02T02:02:50;9.15;;;1.90;;
75785;SDS011;64402;44.708;37.644;2024-03-02T02:05:18;7.47;;;1.70;;
75785;SDS011;64402;44.708;37.644;2024-03-02T02:07:44;6.28;;;1.85;;
75785;SDS011;64402;44.708;37.644;2024-03-02T02:10:10;5.00;;;1.70;;
75785;SDS011;64402;44.708;37.644;2024-03-02T02:12:36;9.38;;;2.08;;
75785;SDS011;64402;44.708;37.644;2024-03-02T02:15:04;10.77;;;2.60;;
75785;SDS011;64402;44.708;37.644;2024-03-02T02:17:47;8.90;;;2.30;;
75785;SDS011;64402;44.708;37.644;2024-03-02T02:20:13;6.45;;;1.95;;
75785;SDS011;64402;44.708;37.644;2024-03-02T02:22:39;8.77;;;2.00;;
75785;SDS011;64402;44.708;37.644;2024-03-02T02:25:05;4.78;;;1.60;;
75785;SDS011;64402;44.708;37.644;2024-03-02T02:27:32;17.88;;;6.07;;
75785;SDS011;64402;44.708;37.644;2024-03-02T02:29:58;7.63;;;2.80;;
75785;SDS011;64402;44.708;37.644;2024-03-02T02:32:25;8.93;;;1.95;;
75785;SDS011;64402;44.708;37.644;2024-03-02T02:34:54;8.90;;;2.20;;
75785;SDS011;64402;44.708;37.644;2024-03-02T02:37:20;10.88;;;2.60;;
75785;SDS011;64402;44.708;37.644;2024-03-02T02:39:46;10.50;;;3.45;;
75785;SDS011;64402;44.708;37.644;2024-03-02T02:42:12;49.67;;;4.10;;
75785;SDS011;64402;44.708;37.644;2024-03-02T02:44:38;11.60;;;4.20;;
75785;SDS011;64402;44.708;37.644;2024-03-02T02:47:05;11.95;;;4.20;;
75785;SDS011;64402;44.708;37.644;2024-03-02T02:49:31;10.45;;;3.70;;
75785;SDS011;64402;44.708;37.644;2024-03-02T02:51:57;12.23;;;4.43;;
75785;SDS011;64402;44.708;37.644;2024-03-02T02:54:23;11.30;;;3.67;;
75785;SDS011;64402;44.708;37.644;2024-03-02T02:56:49;12.20;;;4.05;;
75785;SDS011;64402;44.708;37.644;2024-03-02T02:59:16;12.35;;;3.05;;
75785;SDS011;64402;44.708;37.644;2024-03-02T03:01:42;9.90;;;3.60;;
75785;SDS011;64402;44.708;37.644;2024-03-02T03:04:08;11.80;;;3.13;;
75785;SDS011;64402;44.708;37.644;2024-03-02T03:06:34;14.18;;;3.15;;
75785;SDS011;64402;44.708;37.644;2024-03-02T03:09:00;10.55;;;3.35;;
75785;SDS011;64402;44.708;37.644;2024-03-02T03:11:26;11.40;;;3.42;;
75785;SDS011;64402;44.708;37.644;2024-03-02T03:13:53;18.50;;;4.85;;
75785;SDS011;64402;44.708;37.644;2024-03-02T03:16:20;13.27;;;5.20;;
75785;SDS011;64402;44.708;37.644;2024-03-02T03:18:46;14.23;;;5.50;;
75785;SDS011;64402;44.708;37.644;2024-03-02T03:21:12;12.57;;;4.35;;
75785;SDS011;64402;44.708;37.644;2024-03-02T03:23:38;12.20;;;4.53;;
75785;SDS011;64402;44.708;37.644;2024-03-02T03:26:05;13.50;;;4.75;;
75785;SDS011;64402;44.708;37.644;2024-03-02T03:28:31;31.65;;;5.72;;
75785;SDS011;64402;44.708;37.644;2024-03-02T03:30:57;18.85;;;5.47;;
75785;SDS011;64402;44.708;37.644;2024-03-02T03:33:23;20.80;;;5.60;;
75785;SDS011;64402;44.708;37.644;2024-03-02T03:35:49;12.32;;;4.38;;
75785;SDS011;64402;44.708;37.644;2024-03-02T03:38:15;15.93;;;5.05;;
75785;SDS011;64402;44.708;37.644;2024-03-02T03:40:41;18.48;;;5.05;;
75785;SDS011;64402;44.708;37.644;2024-03-02T03:43:08;15.75;;;4.95;;
75785;SDS011;64402;44.708;37.644;2024-03-02T03:45:34;16.92;;;4.45;;
75785;SDS011;64402;44.708;37.644;2024-03-02T03:48:00;11.35;;;4.30;;
75785;SDS011;64402;44.708;37.644;2024-03-02T03:50:26;15.82;;;5.03;;
75785;SDS011;64402;44.708;37.644;2024-03-02T03:52:52;11.68;;;4.07;;
75785;SDS011;64402;44.708;37.644;2024-03-02T03:55:18;13.02;;;4.45;;
75785;SDS011;64402;44.708;37.644;2024-03-02T03:57:45;17.35;;;4.45;;
75785;SDS011;64402;44.708;37.644;2024-03-02T04:00:11;14.82;;;4.28;;
75785;SDS011;64402;44.708;37.644;2024-03-02T04:02:38;16.50;;;5.03;;
75785;SDS011;64402;44.708;37.644;2024-03-02T04:05:04;17.52;;;5.05;;
75785;SDS011;64402;44.708;37.644;2024-03-02T04:07:37;11.57;;;4.30;;
75785;SDS011;64402;44.708;37.644;2024-03-02T04:10:06;12.90;;;5.00;;
75785;SDS011;64402;44.708;37.644;2024-03-02T04:12:34;14.15;;;4.80;;
75785;SDS011;64402;44.708;37.644;2024-03-02T04:15:02;17.48;;;5.82;;
75785;SDS011;64402;44.708;37.644;2024-03-02T04:17:32;20.45;;;5.55;;
75785;SDS011;64402;44.708;37.644;2024-03-02T04:19:59;16.17;;;5.82;;
75785;SDS011;64402;44.708;37.644;2024-03-02T04:22:26;15.95;;;6.20;;
75785;SDS011;64402;44.708;37.644;2024-03-02T04:24:53;20.48;;;6.85;;
75785;SDS011;64402;44.708;37.644;2024-03-02T04:27:20;17.45;;;6.72;;
75785;SDS011;64402;44.708;37.644;2024-03-02T04:29:46;23.00;;;6.47;;
75785;SDS011;64402;44.708;37.644;2024-03-02T04:32:12;26.95;;;6.82;;
75785;SDS011;64402;44.708;37.644;2024-03-02T04:34:38;23.75;;;7.75;;
75785;SDS011;64402;44.708;37.644;2024-03-02T04:37:04;19.33;;;6.70;;
75785;SDS011;64402;44.708;37.644;2024-03-02T04:39:30;18.48;;;6.63;;
75785;SDS011;64402;44.708;37.644;2024-03-02T04:41:57;23.85;;;7.32;;
75785;SDS011;64402;44.708;37.644;2024-03-02T04:44:24;17.77;;;7.10;;
75785;SDS011;64402;44.708;37.644;2024-03-02T04:46:50;23.67;;;8.60;;
75785;SDS011;64402;44.708;37.644;2024-03-02T04:49:16;24.17;;;7.63;;
75785;SDS011;64402;44.708;37.644;2024-03-02T04:51:43;23.23;;;8.02;;
75785;SDS011;64402;44.708;37.644;2024-03-02T04:54:09;43.35;;;10.63;;
75785;SDS011;64402;44.708;37.644;2024-03-02T04:56:35;65.80;;;13.60;;
75785;SDS011;64402;44.708;37.644;2024-03-02T04:59:15;26.70;;;10.45;;
75785;SDS011;64402;44.708;37.644;2024-03-02T05:01:42;41.72;;;13.77;;
75785;SDS011;64402;44.708;37.644;2024-03-02T05:04:08;22.90;;;8.68;;
75785;SDS011;64402;44.708;37.644;2024-03-02T05:09:04;22.48;;;8.10;;
75785;SDS011;64402;44.708;37.644;2024-03-02T05:11:31;28.45;;;7.85;;
75785;SDS011;64402;44.708;37.644;2024-03-02T05:14:05;32.70;;;8.98;;
75785;SDS011;64402;44.708;37.644;2024-03-02T05:16:32;46.65;;;10.07;;
75785;SDS011;64402;44.708;37.644;2024-03-02T05:18:59;25.42;;;9.27;;
75785;SDS011;64402;44.708;37.644;2024-03-02T05:21:26;32.83;;;9.75;;
75785;SDS011;64402;44.708;37.644;2024-03-02T05:23:52;29.45;;;9.68;;
75785;SDS011;64402;44.708;37.644;2024-03-02T05:26:18;34.78;;;9.57;;
75785;SDS011;64402;44.708;37.644;2024-03-02T05:28:45;38.67;;;8.93;;
75785;SDS011;64402;44.708;37.644;2024-03-02T05:31:11;82.10;;;11.00;;
75785;SDS011;64402;44.708;37.644;2024-03-02T05:33:40;42.45;;;10.38;;
75785;SDS011;64402;44.708;37.644;2024-03-02T05:36:06;37.08;;;10.50;;
75785;SDS011;64402;44.708;37.644;2024-03-02T05:38:36;19.90;;;7.50;;
75785;SDS011;64402;44.708;37.644;2024-03-02T05:41:05;31.83;;;8.27;;
75785;SDS011;64402;44.708;37.644;2024-03-02T05:43:34;40.92;;;8.05;;
75785;SDS011;64402;44.708;37.644;2024-03-02T05:46:00;25.58;;;7.57;;
75785;SDS011;64402;44.708;37.644;2024-03-02T05:48:26;28.35;;;7.18;;
75785;SDS011;64402;44.708;37.644;2024-03-02T05:50:53;19.48;;;6.95;;
75785;SDS011;64402;44.708;37.644;2024-03-02T05:53:19;32.30;;;7.85;;
75785;SDS011;64402;44.708;37.644;2024-03-02T05:55:46;36.17;;;7.65;;
75785;SDS011;64402;44.708;37.644;2024-03-02T05:58:12;19.85;;;7.15;;
75785;SDS011;64402;44.708;37.644;2024-03-02T06:00:53;126.68;;;11.63;;
75785;SDS011;64402;44.708;37.644;2024-03-02T06:03:26;107.75;;;10.23;;
75785;SDS011;64402;44.708;37.644;2024-03-02T06:05:55;27.92;;;7.85;;
75785;SDS011;64402;44.708;37.644;2024-03-02T06:08:21;49.70;;;8.80;;
75785;SDS011;64402;44.708;37.644;2024-03-02T06:10:47;55.47;;;9.05;;
75785;SDS011;64402;44.708;37.644;2024-03-02T06:13:14;33.00;;;8.52;;
75785;SDS011;64402;44.708;37.644;2024-03-02T06:15:40;23.65;;;7.47;;
75785;SDS011;64402;44.708;37.644;2024-03-02T06:18:07;45.22;;;8.02;;
75785;SDS011;64402;44.708;37.644;2024-03-02T06:20:33;22.23;;;7.38;;
75785;SDS011;64402;44.708;37.644;2024-03-02T06:23:00;29.35;;;7.72;;
75785;SDS011;64402;44.708;37.644;2024-03-02T06:25:28;50.88;;;8.93;;
75785;SDS011;64402;44.708;37.644;2024-03-02T06:27:54;37.05;;;8.68;;
75785;SDS011;64402;44.708;37.644;2024-03-02T06:30:21;22.42;;;8.73;;
75785;SDS011;64402;44.708;37.644;2024-03-02T06:32:47;23.83;;;8.75;;
75785;SDS011;64402;44.708;37.644;2024-03-02T06:35:13;28.80;;;8.82;;
75785;SDS011;64402;44.708;37.644;2024-03-02T06:37:40;31.58;;;8.98;;
75785;SDS011;64402;44.708;37.644;2024-03-02T06:40:06;29.40;;;8.63;;
75785;SDS011;64402;44.708;37.644;2024-03-02T06:42:33;22.15;;;8.40;;
75785;SDS011;64402;44.708;37.644;2024-03-02T06:45:01;19.20;;;7.53;;
75785;SDS011;64402;44.708;37.644;2024-03-02T06:49:54;34.40;;;8.52;;
75785;SDS011;64402;44.708;37.644;2024-03-02T06:52:21;20.80;;;8.55;;
75785;SDS011;64402;44.708;37.644;2024-03-02T06:54:47;21.83;;;8.60;;
75785;SDS011;64402;44.708;37.644;2024-03-02T06:57:14;35.92;;;8.77;;
75785;SDS011;64402;44.708;37.644;2024-03-02T06:59:41;29.48;;;8.52;;
75785;SDS011;64402;44.708;37.644;2024-03-02T07:02:08;40.45;;;12.55;;
75785;SDS011;64402;44.708;37.644;2024-03-02T07:04:34;40.88;;;9.35;;
75785;SDS011;64402;44.708;37.644;2024-03-02T07:07:00;31.55;;;9.25;;
75785;SDS011;64402;44.708;37.644;2024-03-02T07:09:26;29.27;;;10.38;;
75785;SDS011;64402;44.708;37.644;2024-03-02T07:11:53;31.05;;;10.20;;
75785;SDS011;64402;44.708;37.644;2024-03-02T07:14:19;47.67;;;10.10;;
75785;SDS011;64402;44.708;37.644;2024-03-02T07:16:45;32.90;;;9.85;;
75785;SDS011;64402;44.708;37.644;2024-03-02T07:19:11;27.77;;;9.45;;
75785;SDS011;64402;44.708;37.644;2024-03-02T07:21:37;20.63;;;8.02;;
75785;SDS011;64402;44.708;37.644;2024-03-02T07:24:04;23.55;;;9.63;;
75785;SDS011;64402;44.708;37.644;2024-03-02T07:26:32;28.95;;;10.48;;
75785;SDS011;64402;44.708;37.644;2024-03-02T07:28:58;22.33;;;8.95;;
75785;SDS011;64402;44.708;37.644;2024-03-02T07:31:25;38.38;;;8.73;;
75785;SDS011;64402;44.708;37.644;2024-03-02T07:33:51;25.30;;;8.25;;
75785;SDS011;64402;44.708;37.644;2024-03-02T07:36:17;22.38;;;8.30;;
75785;SDS011;64402;44.708;37.644;2024-03-02T07:38:44;18.08;;;7.47;;
75785;SDS011;64402;44.708;37.644;2024-03-02T07:41:11;38.60;;;8.07;;
75785;SDS011;64402;44.708;37.644;2024-03-02T07:43:38;26.13;;;7.95;;
75785;SDS011;64402;44.708;37.644;2024-03-02T07:46:04;28.05;;;8.27;;
75785;SDS011;64402;44.708;37.644;2024-03-02T07:48:31;17.30;;;7.90;;
75785;SDS011;64402;44.708;37.644;2024-03-02T07:50:58;17.40;;;7.78;;
75785;SDS011;64402;44.708;37.644;2024-03-02T07:53:24;27.75;;;7.93;;
75785;SDS011;64402;44.708;37.644;2024-03-02T07:55:50;22.13;;;8.95;;
75785;SDS011;64402;44.708;37.644;2024-03-02T07:58:16;41.08;;;8.45;;
75785;SDS011;64402;44.708;37.644;2024-03-02T08:00:46;19.60;;;8.07;;
75785;SDS011;64402;44.708;37.644;2024-03-02T08:03:13;21.05;;;8.68;;
75785;SDS011;64402;44.708;37.644;2024-03-02T08:08:06;19.08;;;7.85;;
75785;SDS011;64402;44.708;37.644;2024-03-02T08:10:32;26.35;;;7.85;;
75785;SDS011;64402;44.708;37.644;2024-03-02T08:12:59;21.70;;;7.60;;
75785;SDS011;64402;44.708;37.644;2024-03-02T08:15:25;23.42;;;8.40;;
75785;SDS011;64402;44.708;37.644;2024-03-02T08:17:52;30.63;;;9.98;;
75785;SDS011;64402;44.708;37.644;2024-03-02T08:20:18;39.55;;;10.68;;
75785;SDS011;64402;44.708;37.644;2024-03-02T08:22:44;26.40;;;9.30;;
75785;SDS011;64402;44.708;37.644;2024-03-02T08:25:12;18.85;;;8.23;;
75785;SDS011;64402;44.708;37.644;2024-03-02T08:27:39;48.92;;;9.05;;
75785;SDS011;64402;44.708;37.644;2024-03-02T08:30:06;18.40;;;7.50;;
75785;SDS011;64402;44.708;37.644;2024-03-02T08:32:33;36.90;;;7.35;;
75785;SDS011;64402;44.708;37.644;2024-03-02T08:35:00;28.25;;;8.00;;
75785;SDS011;64402;44.708;37.644;2024-03-02T08:37:26;22.95;;;7.63;;
75785;SDS011;64402;44.708;37.644;2024-03-02T08:39:52;32.08;;;9.95;;
75785;SDS011;64402;44.708;37.644;2024-03-02T08:42:18;22.75;;;7.50;;
75785;SDS011;64402;44.708;37.644;2024-03-02T08:44:45;28.80;;;7.45;;
75785;SDS011;64402;44.708;37.644;2024-03-02T08:47:11;18.52;;;7.57;;
75785;SDS011;64402;44.708;37.644;2024-03-02T08:49:37;23.13;;;7.60;;
75785;SDS011;64402;44.708;37.644;2024-03-02T08:52:04;26.00;;;8.27;;
75785;SDS011;64402;44.708;37.644;2024-03-02T08:54:30;25.52;;;8.02;;
75785;SDS011;64402;44.708;37.644;2024-03-02T08:56:58;25.05;;;7.15;;
75785;SDS011;64402;44.708;37.644;2024-03-02T08:59:24;27.17;;;6.72;;
75785;SDS011;64402;44.708;37.644;2024-03-02T09:01:50;18.40;;;7.90;;
75785;SDS011;64402;44.708;37.644;2024-03-02T09:04:17;23.00;;;8.07;;
75785;SDS011;64402;44.708;37.644;2024-03-02T09:06:43;18.10;;;6.57;;
75785;SDS011;64402;44.708;37.644;2024-03-02T09:09:09;17.10;;;7.68;;
75785;SDS011;64402;44.708;37.644;2024-03-02T09:11:35;35.92;;;7.70;;
75785;SDS011;64402;44.708;37.644;2024-03-02T09:14:02;21.17;;;7.90;;
75785;SDS011;64402;44.708;37.644;2024-03-02T09:16:28;33.00;;;7.65;;
75785;SDS011;64402;44.708;37.644;2024-03-02T09:18:56;18.58;;;6.60;;
75785;SDS011;64402;44.708;37.644;2024-03-02T09:21:24;17.10;;;8.77;;
75785;SDS011;64402;44.708;37.644;2024-03-02T09:26:17;23.25;;;8.52;;
75785;SDS011;64402;44.708;37.644;2024-03-02T09:28:45;18.98;;;7.80;;
75785;SDS011;64402;44.708;37.644;2024-03-02T09:31:11;19.95;;;7.60;;
75785;SDS011;64402;44.708;37.644;2024-03-02T09:33:37;30.48;;;8.80;;
75785;SDS011;64402;44.708;37.644;2024-03-02T09:36:04;21.83;;;8.27;;
75785;SDS011;64402;44.708;37.644;2024-03-02T09:38:34;25.88;;;8.80;;
75785;SDS011;64402;44.708;37.644;2024-03-02T09:41:00;20.73;;;7.85;;
75785;SDS011;64402;44.708;37.644;2024-03-02T09:43:27;30.08;;;8.68;;
75785;SDS011;64402;44.708;37.644;2024-03-02T09:45:53;20.98;;;8.05;;
75785;SDS011;64402;44.708;37.644;2024-03-02T09:48:20;26.92;;;9.45;;
75785;SDS011;64402;44.708;37.644;2024-03-02T09:50:46;24.92;;;9.35;;
75785;SDS011;64402;44.708;37.644;2024-03-02T09:53:13;23.00;;;9.18;;
75785;SDS011;64402;44.708;37.644;2024-03-02T09:55:41;23.73;;;9.35;;
75785;SDS011;64402;44.708;37.644;2024-03-02T09:58:12;30.23;;;9.82;;
75785;SDS011;64402;44.708;37.644;2024-03-02T10:00:38;15.82;;;7.95;;
75785;SDS011;64402;44.708;37.644;2024-03-02T10:03:08;24.08;;;9.07;;
75785;SDS011;64402;44.708;37.644;2024-03-02T10:05:38;23.35;;;8.20;;
75785;SDS011;64402;44.708;37.644;2024-03-02T10:08:04;23.25;;;8.90;;
75785;SDS011;64402;44.708;37.644;2024-03-02T10:10:35;27.27;;;8.32;;
75785;SDS011;64402;44.708;37.644;2024-03-02T10:13:06;24.67;;;9.10;;
75785;SDS011;64402;44.708;37.644;2024-03-02T10:15:33;37.28;;;8.73;;
75785;SDS011;64402;44.708;37.644;2024-03-02T10:17:59;20.00;;;8.70;;
75785;SDS011;64402;44.708;37.644;2024-03-02T10:20:26;21.17;;;8.98;;
75785;SDS011;64402;44.708;37.644;2024-03-02T10:22:55;22.02;;;7.20;;
75785;SDS011;64402;44.708;37.644;2024-03-02T10:25:34;35.22;;;8.63;;
75785;SDS011;64402;44.708;37.644;2024-03-02T10:28:04;80.97;;;11.80;;
75785;SDS011;64402;44.708;37.644;2024-03-02T10:30:31;25.77;;;9.32;;
75785;SDS011;64402;44.708;37.644;2024-03-02T10:32:58;23.23;;;9.90;;
75785;SDS011;64402;44.708;37.644;2024-03-02T10:35:29;19.77;;;10.18;;
75785;SDS011;64402;44.708;37.644;2024-03-02T10:38:03;36.40;;;8.57;;
75785;SDS011;64402;44.708;37.644;2024-03-02T10:40:30;26.73;;;8.63;;
75785;SDS011;64402;44.708;37.644;2024-03-02T10:42:56;25.90;;;9.10;;
75785;SDS011;64402;44.708;37.644;2024-03-02T10:45:24;34.10;;;11.70;;
75785;SDS011;64402;44.708;37.644;2024-03-02T10:47:50;46.47;;;11.88;;
75785;SDS011;64402;44.708;37.644;2024-03-02T10:50:17;24.75;;;9.73;;
75785;SDS011;64402;44.708;37.644;2024-03-02T10:52:43;21.88;;;8.77;;
75785;SDS011;64402;44.708;37.644;2024-03-02T10:55:09;36.05;;;12.63;;
75785;SDS011;64402;44.708;37.644;2024-03-02T10:57:40;21.63;;;10.43;;
75785;SDS011;64402;44.708;37.644;2024-03-02T11:00:17;40.45;;;10.38;;
75785;SDS011;64402;44.708;37.644;2024-03-02T11:03:06;26.95;;;10.70;;
75785;SDS011;64402;44.708;37.644;2024-03-02T11:05:36;26.75;;;9.32;;
75785;SDS011;64402;44.708;37.644;2024-03-02T11:08:07;57.15;;;18.08;;
75785;SDS011;64402;44.708;37.644;2024-03-02T11:13:13;21.05;;;9.52;;
75785;SDS011;64402;44.708;37.644;2024-03-02T11:15:40;26.05;;;8.93;;
75785;SDS011;64402;44.708;37.644;2024-03-02T11:18:10;43.38;;;9.48;;
75785;SDS011;64402;44.708;37.644;2024-03-02T11:20:38;18.83;;;8.40;;
75785;SDS011;64402;44.708;37.644;2024-03-02T11:23:06;21.70;;;9.00;;
75785;SDS011;64402;44.708;37.644;2024-03-02T11:25:33;27.27;;;10.35;;
75785;SDS011;64402;44.708;37.644;2024-03-02T11:27:59;22.98;;;10.00;;
75785;SDS011;64402;44.708;37.644;2024-03-02T11:33:02;33.58;;;11.10;;
75785;SDS011;64402;44.708;37.644;2024-03-02T11:35:33;33.70;;;9.70;;
75785;SDS011;64402;44.708;37.644;2024-03-02T11:38:06;31.70;;;9.55;;
75785;SDS011;64402;44.708;37.644;2024-03-02T11:40:32;25.58;;;9.25;;
75785;SDS011;64402;44.708;37.644;2024-03-02T11:42:59;30.83;;;9.27;;
75785;SDS011;64402;44.708;37.644;2024-03-02T11:47:56;29.63;;;9.07;;
75785;SDS011;64402;44.708;37.644;2024-03-02T11:52:57;20.88;;;9.30;;
75785;SDS011;64402;44.708;37.644;2024-03-02T11:55:26;34.97;;;10.98;;
75785;SDS011;64402;44.708;37.644;2024-03-02T11:57:53;35.72;;;13.02;;
75785;SDS011;64402;44.708;37.644;2024-03-02T12:00:19;33.97;;;13.63;;
75785;SDS011;64402;44.708;37.644;2024-03-02T12:02:46;29.73;;;10.40;;
75785;SDS011;64402;44.708;37.644;2024-03-02T12:05:24;36.53;;;14.57;;
75785;SDS011;64402;44.708;37.644;2024-03-02T12:07:59;57.45;;;14.18;;
75785;SDS011;64402;44.708;37.644;2024-03-02T12:10:27;37.28;;;17.38;;
75785;SDS011;64402;44.708;37.644;2024-03-02T12:15:28;85.68;;;15.88;;
75785;SDS011;64402;44.708;37.644;2024-03-02T12:17:56;39.65;;;15.88;;
75785;SDS011;64402;44.708;37.644;2024-03-02T12:20:24;23.58;;;10.20;;
75785;SDS011;64402;44.708;37.644;2024-03-02T12:22:51;28.58;;;11.68;;
75785;SDS011;64402;44.708;37.644;2024-03-02T12:25:19;43.80;;;12.77;;
75785;SDS011;64402;44.708;37.644;2024-03-02T12:27:49;37.20;;;15.60;;
75785;SDS011;64402;44.708;37.644;2024-03-02T12:30:17;47.17;;;14.77;;
75785;SDS011;64402;44.708;37.644;2024-03-02T12:32:44;83.20;;;37.90;;
75785;SDS011;64402;44.708;37.644;2024-03-02T12:35:11;35.53;;;15.85;;
75785;SDS011;64402;44.708;37.644;2024-03-02T12:37:44;33.20;;;15.27;;
75785;SDS011;64402;44.708;37.644;2024-03-02T12:40:17;39.13;;;16.27;;
75785;SDS011;64402;44.708;37.644;2024-03-02T12:42:44;38.47;;;15.30;;
75785;SDS011;64402;44.708;37.644;2024-03-02T12:45:14;41.90;;;16.65;;
75785;SDS011;64402;44.708;37.644;2024-03-02T12:47:41;41.30;;;16.33;;
75785;SDS011;64402;44.708;37.644;2024-03-02T12:50:08;35.15;;;16.60;;
75785;SDS011;64402;44.708;37.644;2024-03-02T12:52:35;48.33;;;16.70;;
75785;SDS011;64402;44.708;37.644;2024-03-02T12:55:02;36.33;;;17.38;;
75785;SDS011;64402;44.708;37.644;2024-03-02T12:57:33;47.35;;;18.83;;
75785;SDS011;64402;44.708;37.644;2024-03-02T13:00:00;47.92;;;17.73;;
75785;SDS011;64402;44.708;37.644;2024-03-02T13:02:41;40.08;;;19.27;;
75785;SDS011;64402;44.708;37.644;2024-03-02T13:05:08;46.58;;;21.33;;
75785;SDS011;64402;44.708;37.644;2024-03-02T13:07:37;49.17;;;20.25;;
75785;SDS011;64402;44.708;37.644;2024-03-02T13:10:04;39.88;;;19.60;;
75785;SDS011;64402;44.708;37.644;2024-03-02T13:12:31;72.90;;;19.95;;
75785;SDS011;64402;44.708;37.644;2024-03-02T13:14:58;52.47;;;19.20;;
75785;SDS011;64402;44.708;37.644;2024-03-02T13:17:25;37.63;;;19.40;;
75785;SDS011;64402;44.708;37.644;2024-03-02T13:19:55;39.17;;;18.90;;
75785;SDS011;64402;44.708;37.644;2024-03-02T13:22:25;47.15;;;18.73;;
75785;SDS011;64402;44.708;37.644;2024-03-02T13:24:52;49.00;;;19.45;;
75785;SDS011;64402;44.708;37.644;2024-03-02T13:27:23;41.22;;;19.83;;
75785;SDS011;64402;44.708;37.644;2024-03-02T13:29:49;74.53;;;21.40;;
75785;SDS011;64402;44.708;37.644;2024-03-02T13:32:16;44.45;;;19.70;;
75785;SDS011;64402;44.708;37.644;2024-03-02T13:34:42;42.95;;;20.83;;
75785;SDS011;64402;44.708;37.644;2024-03-02T13:37:09;47.10;;;21.95;;
75785;SDS011;64402;44.708;37.644;2024-03-02T13:39:35;65.22;;;22.98;;
75785;SDS011;64402;44.708;37.644;2024-03-02T13:42:10;44.35;;;21.52;;
75785;SDS011;64402;44.708;37.644;2024-03-02T13:44:40;49.20;;;21.50;;
75785;SDS011;64402;44.708;37.644;2024-03-02T13:47:12;44.95;;;21.02;;
75785;SDS011;64402;44.708;37.644;2024-03-02T13:49:38;45.92;;;20.55;;
75785;SDS011;64402;44.708;37.644;2024-03-02T13:52:09;40.50;;;19.70;;
75785;SDS011;64402;44.708;37.644;2024-03-02T13:54:46;85.40;;;22.48;;
75785;SDS011;64402;44.708;37.644;2024-03-02T13:57:13;52.35;;;22.23;;
75785;SDS011;64402;44.708;37.644;2024-03-02T13:59:40;61.35;;;24.50;;
75785;SDS011;64402;44.708;37.644;2024-03-02T14:02:07;53.45;;;22.83;;
75785;SDS011;64402;44.708;37.644;2024-03-02T14:04:34;49.53;;;21.80;;
75785;SDS011;64402;44.708;37.644;2024-03-02T14:07:01;56.92;;;25.08;;
75785;SDS011;64402;44.708;37.644;2024-03-02T14:09:28;44.25;;;22.83;;
75785;SDS011;64402;44.708;37.644;2024-03-02T14:11:55;55.30;;;25.00;;
75785;SDS011;64402;44.708;37.644;2024-03-02T14:14:22;57.88;;;22.40;;
75785;SDS011;64402;44.708;37.644;2024-03-02T14:16:48;53.83;;;21.92;;
75785;SDS011;64402;44.708;37.644;2024-03-02T14:19:15;45.58;;;21.70;;
75785;SDS011;64402;44.708;37.644;2024-03-02T14:21:41;45.88;;;21.73;;
75785;SDS011;64402;44.708;37.644;2024-03-02T14:24:07;51.75;;;21.20;;
75785;SDS011;64402;44.708;37.644;2024-03-02T14:26:35;46.97;;;22.70;;
75785;SDS011;64402;44.708;37.644;2024-03-02T14:29:02;51.47;;;21.52;;
75785;SDS011;64402;44.708;37.644;2024-03-02T14:31:30;56.38;;;21.88;;
75785;SDS011;64402;44.708;37.644;2024-03-02T14:33:57;59.13;;;21.42;;
75785;SDS011;64402;44.708;37.644;2024-03-02T14:36:23;88.20;;;23.38;;
75785;SDS011;64402;44.708;37.644;2024-03-02T14:38:49;60.72;;;22.70;;
75785;SDS011;64402;44.708;37.644;2024-03-02T14:41:16;61.42;;;21.50;;
75785;SDS011;64402;44.708;37.644;2024-03-02T14:43:42;53.40;;;21.27;;
75785;SDS011;64402;44.708;37.644;2024-03-02T14:46:09;49.95;;;20.20;;
75785;SDS011;64402;44.708;37.644;2024-03-02T14:48:35;52.63;;;24.30;;
75785;SDS011;64402;44.708;37.644;2024-03-02T14:51:02;45.42;;;22.17;;
75785;SDS011;64402;44.708;37.644;2024-03-02T14:53:29;70.70;;;20.55;;